createdAt,value
2022-10-13T00:01:23.913Z,101466.80
2022-10-13T00:03:52.760Z,101469.24
2022-10-13T00:06:26.748Z,101473.39
2022-10-13T00:08:56.813Z,101473.31
2022-10-13T00:11:28.073Z,101475.17
2022-10-13T00:14:03.001Z,101472.83
2022-10-13T00:16:33.054Z,101475.65
2022-10-13T00:19:02.218Z,101476.73
2022-10-13T00:21:30.586Z,101471.65
2022-10-13T00:23:58.775Z,101473.54
2022-10-13T00:26:27.767Z,101471.40
2022-10-13T00:28:56.717Z,101472.79
2022-10-13T00:31:31.381Z,101474.01
2022-10-13T00:34:01.717Z,101473.39
2022-10-13T00:36:30.265Z,101472.30
2022-10-13T00:38:58.967Z,101473.59
2022-10-13T00:41:27.577Z,101477.89
2022-10-13T00:44:05.201Z,101476.48
2022-10-13T00:46:37.102Z,101474.64
2022-10-13T00:49:10.156Z,101474.13
2022-10-13T00:51:46.673Z,101472.30
2022-10-13T00:54:19.559Z,101470.02
2022-10-13T00:56:50.861Z,101473.13
2022-10-13T00:59:26.720Z,101468.67
2022-10-13T01:01:57.687Z,101471.51
2022-10-13T01:04:32.132Z,101468.59
2022-10-13T01:07:02.718Z,101469.77
2022-10-13T01:09:37.662Z,101468.73
2022-10-13T01:12:11.733Z,101472.45
2022-10-13T01:14:45.601Z,101473.93
2022-10-13T01:17:27.096Z,101472.55
2022-10-13T01:20:35.709Z,101469.93
2022-10-13T01:23:24.017Z,101471.66
2022-10-13T01:26:33.530Z,101469.13
2022-10-13T01:29:07.675Z,101472.09
2022-10-13T01:31:51.856Z,101476.91
2022-10-13T01:34:52.645Z,101475.23
2022-10-13T01:37:54.405Z,101473.13
2022-10-13T01:40:53.320Z,101468.48
2022-10-13T01:43:31.200Z,101464.29
2022-10-13T01:46:08.453Z,101459.23
2022-10-13T01:48:39.796Z,101461.27
2022-10-13T01:51:11.859Z,101463.07
2022-10-13T01:53:40.391Z,101466.10
2022-10-13T01:56:08.563Z,101469.11
2022-10-13T01:58:38.532Z,101468.52
2022-10-13T02:01:45.233Z,101466.95
2022-10-13T02:04:37.561Z,101468.08
2022-10-13T02:07:20.101Z,101464.72
2022-10-13T02:10:02.573Z,101473.33
2022-10-13T02:12:42.368Z,101475.11
2022-10-13T02:15:16.867Z,101471.71
2022-10-13T02:17:45.174Z,101470.05
2022-10-13T02:20:16.782Z,101473.46
2022-10-13T02:22:50.912Z,101477.95
